createdAt,value
2019-01-11T00:00:46.219Z," 2.53"
2019-01-11T00:05:43.293Z," 2.62"
2019-01-11T00:10:38.695Z," 2.56"
2019-01-11T00:15:34.405Z," 2.61"
2019-01-11T00:20:29.983Z," 2.61"
2019-01-11T00:25:25.631Z," 2.65"
2019-01-11T00:30:21.179Z," 2.57"
2019-01-11T00:35:17.697Z," 2.51"
2019-01-11T00:40:13.276Z," 2.53"
2019-01-11T00:45:09.536Z," 2.60"
2019-01-11T00:50:05.120Z," 2.57"
2019-01-11T00:55:00.784Z," 2.57"
2019-01-11T00:59:56.632Z," 2.56"
2019-01-11T01:04:52.580Z," 2.61"
2019-01-11T01:09:49.288Z," 2.50"
2019-01-11T01:14:44.569Z," 2.62"
2019-01-11T01:19:40.284Z," 2.57"
2019-01-11T01:24:35.977Z," 2.72"
2019-01-11T01:29:31.754Z," 2.54"
2019-01-11T01:34:27.526Z," 2.56"
2019-01-11T01:39:24.185Z," 2.65"
2019-01-11T01:44:20.234Z," 2.68"
2019-01-11T01:49:15.988Z," 2.65"
2019-01-11T01:54:11.857Z," 2.75"
2019-01-11T01:59:07.623Z," 2.65"
2019-01-11T02:04:04.360Z," 2.80"
2019-01-11T02:09:00.714Z," 2.77"
2019-01-11T02:13:55.995Z," 2.80"
2019-01-11T02:18:51.513Z," 2.80"
2019-01-11T02:23:47.002Z," 2.82"
2019-01-11T02:28:43.461Z," 2.79"
2019-01-11T02:33:39.031Z," 2.85"
2019-01-11T02:38:34.709Z," 2.83"
2019-01-11T02:43:30.347Z," 2.86"
2019-01-11T02:48:26.937Z," 2.83"
2019-01-11T02:53:22.265Z," 2.75"
2019-01-11T02:58:17.924Z," 2.85"
2019-01-11T03:03:14.365Z," 2.89"
2019-01-11T03:08:10.392Z," 2.85"
2019-01-11T03:13:06.328Z," 2.85"
2019-01-11T03:18:02.804Z," 2.90"
2019-01-11T03:22:58.412Z," 2.89"
2019-01-11T03:27:54.376Z," 2.82"
2019-01-11T03:32:50.133Z," 2.85"
2019-01-11T03:37:46.860Z," 2.80"
2019-01-11T03:42:42.279Z," 3.00"
2019-01-11T03:47:37.960Z," 2.90"
2019-01-11T03:52:33.667Z," 2.93"
2019-01-11T03:57:29.249Z," 2.93"
2019-01-11T04:02:25.014Z," 3.03"
2019-01-11T04:07:20.623Z," 2.92"
2019-01-11T04:12:16.244Z," 3.07"
2019-01-11T04:17:13.035Z," 3.01"
2019-01-11T04:22:09.403Z," 3.04"
2019-01-11T04:27:06.497Z," 3.07"
2019-01-11T04:32:03.662Z," 3.10"
2019-01-11T04:36:58.958Z," 3.18"
2019-01-11T04:41:54.857Z," 3.10"
2019-01-11T04:46:51.456Z," 3.26"
2019-01-11T04:51:48.011Z," 3.28"
2019-01-11T04:56:44.209Z," 3.28"
2019-01-11T05:01:40.719Z," 3.31"
2019-01-11T05:06:36.377Z," 3.28"
2019-01-11T05:11:31.966Z," 3.29"
2019-01-11T05:16:28.781Z," 3.37"
2019-01-11T05:21:24.842Z," 3.32"
2019-01-11T05:26:20.815Z," 3.51"
2019-01-11T05:31:16.225Z," 3.47"
2019-01-11T05:36:11.908Z," 3.37"
2019-01-11T05:41:08.205Z," 3.41"
2019-01-11T05:46:03.967Z," 3.45"
2019-01-11T05:50:59.523Z," 3.58"
2019-01-11T05:55:55.108Z," 3.55"
2019-01-11T06:00:52.215Z," 3.51"
2019-01-11T06:05:47.608Z," 3.50"
2019-01-11T06:10:43.339Z," 3.48"
2019-01-11T06:15:39.029Z," 3.66"
2019-01-11T06:20:34.877Z," 3.63"
2019-01-11T06:25:31.593Z," 3.59"
2019-01-11T06:30:26.953Z," 3.56"
2019-01-11T06:35:23.126Z," 3.62"
2019-01-11T06:40:18.904Z," 3.63"
2019-01-11T06:45:14.526Z," 3.66"
2019-01-11T06:50:11.385Z," 3.70"
2019-01-11T06:55:06.820Z," 3.70"
2019-01-11T07:00:04.234Z," 3.73"
2019-01-11T07:04:59.693Z," 3.80"
2019-01-11T07:09:55.438Z," 3.80"
2019-01-11T07:14:51.042Z," 3.78"
2019-01-11T07:19:47.586Z," 3.78"
2019-01-11T07:24:42.901Z," 3.81"
2019-01-11T07:29:38.407Z," 3.91"
2019-01-11T07:34:35.076Z," 3.86"
2019-01-11T07:39:31.024Z," 3.92"
2019-01-11T07:44:27.324Z," 3.94"
2019-01-11T07:49:23.231Z," 4.05"
2019-01-11T07:54:19.667Z," 3.98"
2019-01-11T07:59:15.668Z," 4.01"
2019-01-11T08:04:11.514Z," 4.02"
2019-01-11T08:09:07.311Z," 4.13"
2019-01-11T08:14:02.898Z," 4.13"
2019-01-11T08:18:58.681Z," 4.16"
2019-01-11T08:23:54.210Z," 4.20"
2019-01-11T08:28:50.098Z," 4.22"
2019-01-11T08:33:45.840Z," 4.32"
2019-01-11T08:38:42.467Z," 4.28"
2019-01-11T08:43:38.979Z," 4.31"
2019-01-11T08:48:34.605Z," 4.40"
2019-01-11T08:53:30.254Z," 4.55"
2019-01-11T08:58:27.151Z," 4.50"
2019-01-11T09:03:23.779Z," 4.49"
2019-01-11T09:08:19.335Z," 4.53"
2019-01-11T09:13:15.338Z," 4.68"
2019-01-11T09:18:11.290Z," 4.73"
2019-01-11T09:23:07.158Z," 4.74"
2019-01-11T09:28:02.813Z," 4.84"
2019-01-11T09:32:58.803Z," 4.73"
2019-01-11T09:37:54.848Z," 4.86"
2019-01-11T09:42:51.875Z," 4.93"
2019-01-11T09:47:48.464Z," 5.05"
2019-01-11T09:52:43.615Z," 5.07"
2019-01-11T09:57:40.202Z," 5.18"
2019-01-11T10:02:36.533Z," 5.21"
2019-01-11T10:07:32.411Z," 5.28"
2019-01-11T10:12:28.327Z," 5.21"
2019-01-11T10:17:24.899Z," 5.32"
2019-01-11T10:22:22.033Z," 5.48"
2019-01-11T10:27:17.578Z," 5.64"
2019-01-11T10:32:13.401Z," 5.61"
2019-01-11T10:37:09.126Z," 5.72"
2019-01-11T10:42:05.459Z," 5.71"
2019-01-11T10:47:01.637Z," 5.84"
2019-01-11T10:51:57.610Z," 5.84"
2019-01-11T10:56:54.170Z," 5.98"
2019-01-11T11:01:49.693Z," 6.19"
2019-01-11T11:06:45.609Z," 6.41"
2019-01-11T11:11:41.468Z," 6.54"
2019-01-11T11:16:37.443Z," 6.52"
2019-01-11T11:21:34.842Z," 6.57"
2019-01-11T11:26:31.116Z," 6.62"
2019-01-11T11:31:26.976Z," 6.69"
2019-01-11T11:36:22.854Z," 6.70"
2019-01-11T11:41:19.720Z," 6.89"
2019-01-11T11:46:15.132Z," 6.96"
2019-01-11T11:51:11.990Z," 6.96"
2019-01-11T11:56:07.415Z," 6.97"
2019-01-11T12:01:03.097Z," 7.07"
2019-01-11T12:05:58.850Z," 7.15"
2019-01-11T12:10:56.033Z," 7.14"
2019-01-11T12:15:51.664Z," 7.11"
2019-01-11T12:20:47.443Z," 7.13"
2019-01-11T12:25:42.843Z," 7.14"
2019-01-11T12:30:38.599Z," 7.24"
2019-01-11T12:35:34.235Z," 7.18"
2019-01-11T12:40:29.561Z," 7.24"
2019-01-11T12:45:25.474Z," 7.20"
2019-01-11T12:50:20.945Z," 7.23"
2019-01-11T12:55:16.836Z," 7.36"
2019-01-11T13:00:13.351Z," 7.33"
2019-01-11T13:05:08.559Z," 7.40"
2019-01-11T13:10:04.813Z," 7.48"
2019-01-11T13:15:01.243Z," 7.70"
2019-01-11T13:19:58.806Z," 7.75"
2019-01-11T13:24:54.201Z," 7.73"
2019-01-11T13:29:50.761Z," 7.77"
2019-01-11T13:34:45.980Z," 7.85"
2019-01-11T13:39:43.539Z," 7.87"
2019-01-11T13:44:39.186Z," 7.88"
2019-01-11T13:49:34.945Z," 7.97"
2019-01-11T13:54:30.712Z," 7.85"
2019-01-11T13:59:26.803Z," 8.00"
2019-01-11T14:04:22.435Z," 8.05"
2019-01-11T14:09:18.370Z," 8.05"
2019-01-11T14:14:14.164Z," 8.06"
2019-01-11T14:19:09.846Z," 8.09"
2019-01-11T14:24:05.155Z," 8.10"
2019-01-11T14:29:02.138Z," 8.01"
2019-01-11T14:33:57.575Z," 8.03"
2019-01-11T14:38:54.002Z," 7.97"
2019-01-11T14:43:49.636Z," 7.85"
2019-01-11T14:48:46.110Z," 7.85"
2019-01-11T14:53:41.804Z," 7.93"
2019-01-11T14:58:37.946Z," 7.87"
2019-01-11T15:03:33.949Z," 7.85"
2019-01-11T15:08:29.566Z," 7.85"
2019-01-11T15:13:25.548Z," 7.85"
2019-01-11T15:18:21.319Z," 7.93"
2019-01-11T15:23:16.963Z," 7.85"
2019-01-11T15:28:13.558Z," 7.91"
2019-01-11T15:33:10.625Z," 7.93"
2019-01-11T15:38:06.110Z," 7.85"
2019-01-11T15:43:02.073Z," 7.95"
2019-01-11T15:47:57.598Z," 7.88"
2019-01-11T15:52:54.393Z," 8.00"
2019-01-11T15:57:51.147Z," 8.06"
2019-01-11T16:02:47.002Z," 7.91"
2019-01-11T16:07:42.604Z," 7.93"
2019-01-11T16:12:38.649Z," 8.03"
2019-01-11T16:17:34.139Z," 7.95"
2019-01-11T16:22:29.928Z," 7.88"
2019-01-11T16:27:25.542Z," 7.95"
2019-01-11T16:32:21.442Z," 7.98"
2019-01-11T16:37:16.934Z," 7.95"
2019-01-11T16:42:12.718Z," 7.80"
2019-01-11T16:47:08.410Z," 7.83"
2019-01-11T16:52:03.998Z," 7.80"
2019-01-11T16:57:00.831Z," 7.79"
2019-01-11T17:01:56.306Z," 7.80"
2019-01-11T17:06:53.164Z," 7.85"
2019-01-11T17:11:48.680Z," 7.76"
2019-01-11T17:16:44.092Z," 7.87"
2019-01-11T17:21:39.954Z," 7.80"
2019-01-11T17:26:35.882Z," 7.82"
2019-01-11T17:31:31.703Z," 7.80"
2019-01-11T17:36:27.296Z," 7.83"
2019-01-11T17:41:24.029Z," 7.66"
2019-01-11T17:46:20.335Z," 7.66"
2019-01-11T17:51:15.809Z," 7.70"
2019-01-11T17:56:11.505Z," 7.67"
2019-01-11T18:01:08.310Z," 7.63"
2019-01-11T18:06:03.969Z," 7.61"
2019-01-11T18:10:59.494Z," 7.66"
2019-01-11T18:15:55.369Z," 7.61"
2019-01-11T18:20:51.156Z," 7.66"
2019-01-11T18:25:46.657Z," 7.63"
2019-01-11T18:30:43.340Z," 7.66"
2019-01-11T18:35:38.872Z," 7.66"
2019-01-11T18:40:34.466Z," 7.69"
2019-01-11T18:45:30.402Z," 7.73"
2019-01-11T18:50:26.117Z," 7.72"
2019-01-11T18:55:21.874Z," 7.61"
2019-01-11T19:00:17.500Z," 7.48"
2019-01-11T19:05:13.685Z," 7.51"
2019-01-11T19:10:10.339Z," 7.40"
2019-01-11T19:15:05.909Z," 7.38"
2019-01-11T19:20:01.508Z," 7.36"
2019-01-11T19:24:57.775Z," 7.36"
2019-01-11T19:29:54.415Z," 7.24"
2019-01-11T19:34:49.634Z," 7.28"
2019-01-11T19:39:45.285Z," 7.29"
2019-01-11T19:44:44.563Z," 7.31"
2019-01-11T19:49:42.746Z," 7.35"
2019-01-11T19:54:38.665Z," 7.45"
2019-01-11T19:59:34.258Z," 7.50"
2019-01-11T20:04:32.224Z," 7.43"
2019-01-11T20:09:27.536Z," 7.40"
2019-01-11T20:14:24.355Z," 7.48"
2019-01-11T20:19:19.799Z," 7.56"
2019-01-11T20:24:16.240Z," 7.43"
2019-01-11T20:29:11.996Z," 7.48"
2019-01-11T20:34:07.835Z," 7.50"
2019-01-11T20:39:04.677Z," 7.50"
2019-01-11T20:44:00.141Z," 7.51"
2019-01-11T20:48:55.729Z," 7.53"
2019-01-11T20:53:54.736Z," 7.50"
2019-01-11T20:58:49.879Z," 7.57"
2019-01-11T21:03:46.968Z," 7.47"
2019-01-11T21:08:42.497Z," 7.50"
2019-01-11T21:13:38.115Z," 7.40"
2019-01-11T21:18:34.294Z," 7.43"
2019-01-11T21:23:30.563Z," 7.48"
2019-01-11T21:28:26.378Z," 7.47"
2019-01-11T21:33:23.363Z," 7.45"
2019-01-11T21:38:18.898Z," 7.53"
2019-01-11T21:43:19.031Z," 7.43"
2019-01-11T21:48:14.772Z," 7.50"
2019-01-11T21:53:10.212Z," 7.51"
2019-01-11T21:58:07.712Z," 7.40"
2019-01-11T22:03:03.092Z," 7.51"
2019-01-11T22:07:59.443Z," 7.47"
2019-01-11T22:12:55.025Z," 7.42"
2019-01-11T22:17:50.940Z," 7.35"
2019-01-11T22:22:48.465Z," 7.43"
2019-01-11T22:27:44.407Z," 7.38"
2019-01-11T22:32:39.850Z," 7.36"
2019-01-11T22:37:36.399Z," 7.32"
2019-01-11T22:42:31.816Z," 7.29"
2019-01-11T22:47:27.495Z," 7.29"
2019-01-11T22:52:24.266Z," 7.29"
2019-01-11T22:57:20.549Z," 7.35"
2019-01-11T23:02:16.412Z," 7.25"
2019-01-11T23:07:13.100Z," 7.23"
2019-01-11T23:12:08.406Z," 7.23"
2019-01-11T23:17:05.388Z," 7.35"
2019-01-11T23:22:01.082Z," 7.38"
2019-01-11T23:26:56.744Z," 7.33"
2019-01-11T23:31:52.473Z," 7.38"
2019-01-11T23:36:48.088Z," 7.31"
2019-01-11T23:41:43.724Z," 7.32"
2019-01-11T23:46:39.511Z," 7.38"
2019-01-11T23:51:35.198Z," 7.36"
2019-01-11T23:56:31.130Z," 7.35"
